createdAt,value
2023-02-08T00:02:25.322Z,9.20
2023-02-08T00:04:55.664Z,7.90
2023-02-08T00:07:25.168Z,8.10
2023-02-08T00:09:53.732Z,8.20
2023-02-08T00:12:24.088Z,7.70
2023-02-08T00:14:52.254Z,7.00
2023-02-08T00:17:20.628Z,8.10
2023-02-08T00:19:48.843Z,8.50
2023-02-08T00:22:17.728Z,8.50
2023-02-08T00:24:45.906Z,7.90
2023-02-08T00:27:16.002Z,7.80
2023-02-08T00:29:45.049Z,7.90
2023-02-08T00:32:13.480Z,9.00
2023-02-08T00:34:44.541Z,8.10
2023-02-08T00:37:13.574Z,8.10
2023-02-08T00:39:42.748Z,7.30
2023-02-08T00:42:11.602Z,7.90
2023-02-08T00:44:41.489Z,8.20
2023-02-08T00:47:11.322Z,8.80
2023-02-08T00:49:40.761Z,6.70
2023-02-08T00:52:09.134Z,7.00
2023-02-08T00:54:44.715Z,8.00
2023-02-08T00:57:34.054Z,8.40
2023-02-08T01:00:04.709Z,8.50
2023-02-08T01:02:34.808Z,8.00
2023-02-08T01:05:05.233Z,8.10
2023-02-08T01:07:39.174Z,8.00
2023-02-08T01:10:09.696Z,8.70
2023-02-08T01:12:38.757Z,7.60
2023-02-08T01:15:08.763Z,8.50
2023-02-08T01:17:38.487Z,8.60
2023-02-08T01:20:10.935Z,8.30
2023-02-08T01:22:40.424Z,7.80
2023-02-08T01:25:08.868Z,8.00
2023-02-08T01:27:39.179Z,7.80
2023-02-08T01:30:10.303Z,8.40
2023-02-08T01:32:38.789Z,8.80
2023-02-08T01:35:08.011Z,8.90
2023-02-08T01:37:43.056Z,8.20
2023-02-08T01:40:33.308Z,8.70
2023-02-08T01:43:02.559Z,9.30
2023-02-08T01:45:34.666Z,9.60
2023-02-08T01:48:09.952Z,8.50
2023-02-08T01:51:14.031Z,8.50
2023-02-08T01:53:42.817Z,9.30
2023-02-08T01:56:14.644Z,9.40
2023-02-08T01:58:45.861Z,9.30
2023-02-08T02:01:14.220Z,8.60
2023-02-08T02:03:42.694Z,9.60
2023-02-08T02:06:18.329Z,8.70
2023-02-08T02:09:08.052Z,10.00
2023-02-08T02:11:41.641Z,9.60
2023-02-08T02:14:10.789Z,10.20
2023-02-08T02:16:43.161Z,10.60
2023-02-08T02:19:50.976Z,9.50
2023-02-08T02:22:27.795Z,10.40
2023-02-08T02:25:19.588Z,11.30
2023-02-08T02:28:07.456Z,10.90
2023-02-08T02:31:13.203Z,11.70
2023-02-08T02:33:41.611Z,11.40
2023-02-08T02:36:12.751Z,12.50
2023-02-08T02:39:05.147Z,13.80
2023-02-08T02:42:23.950Z,11.50
2023-02-08T02:45:27.574Z,10.80
2023-02-08T02:48:13.829Z,11.70
2023-02-08T02:50:47.598Z,11.30
2023-02-08T02:53:40.494Z,11.00
2023-02-08T02:56:13.812Z,11.30
2023-02-08T02:58:42.968Z,12.80
2023-02-08T03:01:11.256Z,11.90
2023-02-08T03:03:40.734Z,12.50
2023-02-08T03:06:40.867Z,12.40
2023-02-08T03:09:36.086Z,12.90
2023-02-08T03:12:28.445Z,12.20
2023-02-08T03:15:34.179Z,12.90
2023-02-08T03:18:08.885Z,10.90
2023-02-08T03:20:39.687Z,12.40
2023-02-08T03:23:20.685Z,10.60
2023-02-08T03:25:57.914Z,12.30
2023-02-08T03:28:40.232Z,11.60
2023-02-08T03:31:27.182Z,11.80
2023-02-08T03:34:01.970Z,12.10
2023-02-08T03:36:38.782Z,13.50
2023-02-08T03:39:09.240Z,12.20
2023-02-08T03:41:43.919Z,13.80
2023-02-08T03:44:17.349Z,12.30
2023-02-08T03:47:13.503Z,10.40
2023-02-08T03:49:41.856Z,11.90
2023-02-08T03:52:10.391Z,12.20
2023-02-08T03:54:45.611Z,12.40
2023-02-08T03:57:36.341Z,12.90
2023-02-08T04:00:10.720Z,12.50
2023-02-08T04:03:08.427Z,11.60
2023-02-08T04:05:37.439Z,13.10
2023-02-08T04:08:06.415Z,11.10
2023-02-08T04:10:34.852Z,10.50
2023-02-08T04:13:47.370Z,12.20
2023-02-08T04:16:15.920Z,12.60
2023-02-08T04:18:45.841Z,12.40
2023-02-08T04:21:14.731Z,14.20
2023-02-08T04:23:44.330Z,14.30
2023-02-08T04:26:12.671Z,13.90
2023-02-08T04:28:40.823Z,15.20
2023-02-08T04:31:09.304Z,11.20
2023-02-08T04:33:37.679Z,12.10
2023-02-08T04:36:06.601Z,12.60
2023-02-08T04:38:36.984Z,10.90
2023-02-08T04:41:06.101Z,10.20
2023-02-08T04:43:35.867Z,11.50
2023-02-08T04:46:04.259Z,12.30
2023-02-08T04:48:33.644Z,10.20
2023-02-08T04:51:01.950Z,12.10
2023-02-08T04:53:30.252Z,11.00
2023-02-08T04:55:58.435Z,10.50
2023-02-08T04:58:26.860Z,12.80
2023-02-08T05:00:55.524Z,11.60
2023-02-08T05:03:24.193Z,11.80
2023-02-08T05:05:59.464Z,9.80
2023-02-08T05:08:28.374Z,13.70
2023-02-08T05:10:56.826Z,11.80
2023-02-08T05:13:25.139Z,12.00
2023-02-08T05:15:54.272Z,12.00
2023-02-08T05:18:30.153Z,10.30
2023-02-08T05:21:01.277Z,9.90
2023-02-08T05:23:29.887Z,10.60
2023-02-08T05:25:58.470Z,10.70
2023-02-08T05:28:26.850Z,11.70
2023-02-08T05:30:55.663Z,10.60
2023-02-08T05:33:29.606Z,12.50
2023-02-08T05:35:59.320Z,9.50
2023-02-08T05:38:30.398Z,10.90
2023-02-08T05:40:58.863Z,10.80
2023-02-08T05:43:27.258Z,10.90
2023-02-08T05:45:55.699Z,11.10
2023-02-08T05:48:24.012Z,10.90
2023-02-08T05:50:55.460Z,9.80
2023-02-08T05:53:24.077Z,11.40
2023-02-08T05:55:53.241Z,9.50
2023-02-08T05:58:21.630Z,11.00
2023-02-08T06:00:51.663Z,10.50
2023-02-08T06:03:20.435Z,11.50
2023-02-08T06:05:51.371Z,11.50
2023-02-08T06:08:19.875Z,11.70
2023-02-08T06:10:49.289Z,10.40
2023-02-08T06:13:18.469Z,9.00
2023-02-08T06:15:49.798Z,10.70
2023-02-08T06:18:18.556Z,9.70
2023-02-08T06:20:47.178Z,11.30
2023-02-08T06:23:15.774Z,10.10
2023-02-08T06:25:47.973Z,11.60
2023-02-08T06:28:16.779Z,13.60
2023-02-08T06:30:45.248Z,15.20
2023-02-08T06:33:35.884Z,13.60
2023-02-08T06:36:04.596Z,12.20
2023-02-08T06:38:33.122Z,11.90
2023-02-08T06:41:01.599Z,14.80
2023-02-08T06:43:31.701Z,13.60
2023-02-08T06:46:00.302Z,13.10
2023-02-08T06:48:28.979Z,12.40
2023-02-08T06:50:58.035Z,12.90
2023-02-08T06:53:26.794Z,13.20
2023-02-08T06:55:55.422Z,11.50
2023-02-08T06:58:24.237Z,13.00
2023-02-08T07:00:52.601Z,10.70
2023-02-08T07:03:23.007Z,10.70
2023-02-08T07:18:13.170Z,9.90
2023-02-08T07:20:42.282Z,11.20
2023-02-08T07:23:13.541Z,13.90
2023-02-08T07:25:42.044Z,11.10
2023-02-08T07:28:10.857Z,12.70
2023-02-08T07:30:39.665Z,11.40
2023-02-08T07:33:08.666Z,11.70
2023-02-08T07:35:37.234Z,12.20
2023-02-08T07:38:06.118Z,11.40
2023-02-08T07:40:36.386Z,11.80
2023-02-08T07:43:06.766Z,10.30
2023-02-08T07:45:45.932Z,9.90
2023-02-08T07:48:40.233Z,9.10
2023-02-08T07:51:11.377Z,11.00
2023-02-08T07:53:41.402Z,10.30
2023-02-08T07:56:13.249Z,10.70
2023-02-08T07:58:43.055Z,10.50
2023-02-08T08:01:22.031Z,10.00
2023-02-08T08:04:13.506Z,9.90
2023-02-08T08:06:47.746Z,10.50
2023-02-08T08:09:16.985Z,11.30
2023-02-08T08:11:45.644Z,11.30
2023-02-08T08:14:15.060Z,8.60
2023-02-08T08:16:44.067Z,9.80
2023-02-08T08:19:14.185Z,10.40
2023-02-08T08:21:43.289Z,9.50
2023-02-08T08:25:15.014Z,11.20
2023-02-08T08:27:46.409Z,10.60
2023-02-08T08:30:17.138Z,11.30
2023-02-08T08:32:45.759Z,11.00
2023-02-08T08:35:14.273Z,11.80
2023-02-08T08:37:42.592Z,11.50
2023-02-08T08:40:11.240Z,11.00
2023-02-08T08:42:40.315Z,10.90
2023-02-08T08:45:19.858Z,11.20
2023-02-08T08:47:49.321Z,13.00
2023-02-08T08:50:18.325Z,10.70
2023-02-08T08:52:46.805Z,11.20
2023-02-08T08:55:15.807Z,10.90
2023-02-08T08:57:44.720Z,10.40
2023-02-08T09:00:14.243Z,11.20
2023-02-08T09:02:42.829Z,10.60
2023-02-08T09:05:11.701Z,10.20
2023-02-08T09:19:44.981Z,12.20
2023-02-08T09:22:12.983Z,11.20
2023-02-08T09:24:40.204Z,11.20
2023-02-08T09:27:08.740Z,9.40
2023-02-08T09:29:36.174Z,10.20
2023-02-08T09:32:03.225Z,11.60
2023-02-08T09:34:30.451Z,10.10
2023-02-08T09:36:59.102Z,11.60
2023-02-08T09:39:25.915Z,11.50
2023-02-08T09:42:15.290Z,11.90
2023-02-08T09:44:55.606Z,9.50
2023-02-08T09:47:34.055Z,11.00
2023-02-08T09:50:03.852Z,10.70
2023-02-08T09:52:50.302Z,11.10
2023-02-08T09:55:38.332Z,9.50
2023-02-08T09:58:23.047Z,10.70
2023-02-08T10:03:34.381Z,8.90
2023-02-08T10:06:04.458Z,10.30
2023-02-08T10:08:35.890Z,11.00
2023-02-08T10:11:43.591Z,10.80
2023-02-08T10:14:35.771Z,9.30
2023-02-08T10:17:27.829Z,10.70
2023-02-08T10:20:14.564Z,10.40
2023-02-08T10:22:53.893Z,11.20
2023-02-08T10:25:50.507Z,10.30
2023-02-08T10:29:05.345Z,10.80
2023-02-08T10:31:44.233Z,9.90
2023-02-08T10:34:23.961Z,10.30
2023-02-08T10:36:51.705Z,9.60
2023-02-08T10:39:26.231Z,9.10
2023-02-08T10:44:34.031Z,11.60
2023-02-08T10:47:18.286Z,10.50
2023-02-08T10:53:57.544Z,10.30
2023-02-08T10:56:47.453Z,10.00
2023-02-08T10:59:49.912Z,9.50
2023-02-08T11:02:26.483Z,9.30
2023-02-08T11:05:07.094Z,9.00
2023-02-08T11:07:37.230Z,9.90
2023-02-08T11:10:19.993Z,9.70
2023-02-08T11:13:05.343Z,9.00
2023-02-08T11:15:57.928Z,9.60
2023-02-08T11:19:35.714Z,9.40
2023-02-08T11:22:06.659Z,9.70
2023-02-08T11:24:40.803Z,9.00
2023-02-08T11:27:26.388Z,9.20
2023-02-08T11:30:18.918Z,8.70
2023-02-08T11:33:40.188Z,10.50
2023-02-08T11:36:12.180Z,10.20
2023-02-08T11:38:45.261Z,8.40
2023-02-08T11:41:18.603Z,10.00
2023-02-08T11:43:58.787Z,8.90
2023-02-08T11:46:29.545Z,8.30
2023-02-08T11:49:03.663Z,8.20
2023-02-08T11:51:45.167Z,7.60
2023-02-08T11:54:33.309Z,8.80
2023-02-08T11:57:14.735Z,9.00
2023-02-08T11:59:45.051Z,8.40
2023-02-08T12:02:40.514Z,7.50
2023-02-08T12:05:13.739Z,9.00
2023-02-08T12:08:21.228Z,9.30
2023-02-08T12:11:14.638Z,7.40
2023-02-08T12:14:28.902Z,7.50
2023-02-08T12:17:20.336Z,7.90
2023-02-08T12:20:17.240Z,7.30
2023-02-08T12:23:36.556Z,7.20
2023-02-08T12:26:17.579Z,7.30
2023-02-08T12:29:23.155Z,7.30
2023-02-08T12:32:03.091Z,7.00
2023-02-08T12:34:51.028Z,7.30
2023-02-08T12:37:48.140Z,7.90
2023-02-08T12:40:50.337Z,8.10
2023-02-08T12:43:25.918Z,7.80
2023-02-08T12:46:18.135Z,8.80
2023-02-08T12:49:00.964Z,7.30
2023-02-08T12:51:49.311Z,7.10
2023-02-08T12:54:34.270Z,8.30
2023-02-08T12:57:02.781Z,7.90
2023-02-08T13:00:02.292Z,7.60
2023-02-08T13:03:14.723Z,7.00
2023-02-08T13:06:01.678Z,6.70
2023-02-08T13:08:30.441Z,7.90
2023-02-08T13:11:18.824Z,7.00
2023-02-08T13:14:09.944Z,7.30
2023-02-08T13:16:44.227Z,7.70
2023-02-08T13:19:27.683Z,9.10
2023-02-08T13:22:03.740Z,11.80
2023-02-08T13:24:36.396Z,11.50
2023-02-08T13:27:07.307Z,11.90
2023-02-08T13:29:37.417Z,12.10
2023-02-08T13:32:10.240Z,11.60
2023-02-08T13:34:51.295Z,11.80
2023-02-08T13:37:30.176Z,12.50
2023-02-08T13:40:13.589Z,11.90
2023-02-08T13:45:39.784Z,12.10
2023-02-08T13:48:11.235Z,12.30
2023-02-08T13:50:47.469Z,12.60
2023-02-08T13:53:38.182Z,12.00
2023-02-08T13:56:13.793Z,11.30
2023-02-08T13:58:50.021Z,12.10
2023-02-08T14:01:28.540Z,12.60
2023-02-08T14:04:16.841Z,12.10
2023-02-08T14:06:45.947Z,11.30
2023-02-08T14:09:21.719Z,11.70
2023-02-08T14:11:56.695Z,10.50
2023-02-08T14:14:27.434Z,12.00
2023-02-08T14:17:04.052Z,10.80
2023-02-08T14:19:32.554Z,12.40
2023-02-08T14:22:04.149Z,11.20
2023-02-08T14:24:39.152Z,11.00
2023-02-08T14:27:23.269Z,11.10
2023-02-08T14:30:24.689Z,11.90
2023-02-08T14:33:18.687Z,10.10
2023-02-08T14:36:04.367Z,10.50
2023-02-08T14:38:50.336Z,10.40
2023-02-08T14:41:49.795Z,12.10
2023-02-08T14:44:37.261Z,10.20
2023-02-08T14:47:12.970Z,11.00
2023-02-08T14:49:44.680Z,11.20
2023-02-08T14:52:14.202Z,12.20
2023-02-08T14:54:48.534Z,11.50
2023-02-08T14:57:35.825Z,11.90
2023-02-08T15:00:15.985Z,10.40
2023-02-08T15:03:05.658Z,10.80
2023-02-08T15:05:42.204Z,10.60
2023-02-08T15:08:21.194Z,11.50
2023-02-08T15:11:22.056Z,11.40
2023-02-08T15:13:50.705Z,11.80
2023-02-08T15:16:18.114Z,11.60
2023-02-08T15:18:46.022Z,11.30
2023-02-08T15:21:18.214Z,13.20
2023-02-08T15:24:07.509Z,12.10
2023-02-08T15:26:34.753Z,14.50
2023-02-08T15:29:04.507Z,11.70
2023-02-08T15:31:33.437Z,13.40
2023-02-08T15:34:02.290Z,13.20
2023-02-08T15:36:33.309Z,13.20
2023-02-08T15:39:03.859Z,12.70
2023-02-08T15:41:53.432Z,13.30
2023-02-08T15:44:27.796Z,11.90
2023-02-08T15:46:57.683Z,12.50
2023-02-08T20:54:03.172Z,41.50
2023-02-08T20:56:35.951Z,40.40
2023-02-08T21:00:01.280Z,37.30
2023-02-08T21:02:31.557Z,23.40
2023-02-08T21:05:07.458Z,32.40
